createdAt,value
2022-08-09T00:00:00.687Z,17.81
2022-08-09T00:02:33.504Z,17.81
2022-08-09T00:06:16.585Z,17.79
2022-08-09T00:07:47.387Z,17.73
2022-08-09T00:10:17.817Z,17.66
2022-08-09T00:12:45.606Z,17.64
2022-08-09T00:15:14.700Z,17.64
2022-08-09T00:18:07.608Z,17.62
2022-08-09T00:20:28.477Z,17.66
2022-08-09T00:22:58.265Z,17.66
2022-08-09T00:25:44.904Z,17.67
2022-08-09T00:28:19.347Z,17.63
2022-08-09T00:30:50.667Z,17.61
2022-08-09T00:33:17.505Z,17.61
2022-08-09T00:35:44.259Z,17.60
2022-08-09T00:38:12.707Z,17.58
2022-08-09T00:40:40.191Z,17.57
2022-08-09T00:44:11.191Z,17.66
2022-08-09T00:46:10.098Z,17.69
2022-08-09T00:48:37.255Z,17.71
2022-08-09T00:51:11.877Z,17.71
2022-08-09T00:53:39.997Z,17.70
2022-08-09T00:56:09.826Z,17.65
2022-08-09T00:58:37.000Z,17.58
2022-08-09T01:01:19.197Z,17.55
2022-08-09T01:04:18.472Z,17.49
2022-08-09T01:07:14.061Z,17.44
2022-08-09T01:09:54.107Z,17.41
2022-08-09T01:12:45.604Z,17.36
2022-08-09T01:15:17.650Z,17.38
2022-08-09T01:17:51.968Z,17.38
2022-08-09T01:20:24.576Z,17.34
2022-08-09T01:24:02.677Z,17.28
2022-08-09T01:26:30.788Z,17.29
2022-08-09T01:29:00.740Z,17.31
2022-08-09T01:32:29.480Z,17.28
2022-08-09T01:34:21.110Z,17.24
2022-08-09T01:36:49.595Z,17.24
2022-08-09T01:39:17.810Z,17.33
2022-08-09T01:41:53.778Z,17.31
2022-08-09T01:44:30.727Z,17.25
2022-08-09T01:46:59.960Z,17.18
2022-08-09T01:49:32.064Z,17.16
2022-08-09T01:52:10.437Z,17.22
2022-08-09T01:54:41.265Z,17.19
2022-08-09T01:57:14.863Z,17.11
2022-08-09T01:59:51.852Z,17.10
2022-08-09T02:02:30.973Z,17.03
2022-08-09T02:05:05.614Z,17.02
2022-08-09T02:08:40.229Z,17.07
2022-08-09T02:10:40.358Z,17.14
2022-08-09T02:13:14.584Z,17.10
2022-08-09T02:15:50.149Z,17.11
2022-08-09T02:18:24.035Z,17.11
2022-08-09T02:21:06.076Z,17.14
2022-08-09T02:23:39.845Z,17.15
2022-08-09T02:26:25.106Z,17.13
2022-08-09T02:28:57.525Z,17.12
2022-08-09T02:31:35.679Z,17.10
2022-08-09T02:34:13.093Z,17.06
2022-08-09T02:36:43.375Z,17.09
2022-08-09T02:39:19.871Z,17.10
2022-08-09T02:41:56.671Z,17.08
2022-08-09T02:44:31.206Z,17.01
2022-08-09T02:47:02.691Z,16.98
2022-08-09T02:49:38.897Z,16.93
2022-08-09T02:52:13.596Z,16.93
2022-08-09T02:54:54.305Z,16.91
2022-08-09T02:57:25.051Z,16.92
2022-08-09T03:00:25.209Z,16.97
2022-08-09T03:02:57.993Z,16.96
2022-08-09T03:05:27.757Z,16.96
2022-08-09T03:07:55.762Z,16.93
2022-08-09T03:10:24.611Z,16.94
2022-08-09T03:12:53.214Z,16.86
2022-08-09T03:15:23.106Z,16.80
2022-08-09T03:17:58.641Z,16.76
2022-08-09T03:20:29.487Z,16.75
2022-08-09T03:23:05.541Z,16.77
2022-08-09T03:25:58.201Z,16.74
2022-08-09T03:28:30.520Z,16.70
2022-08-09T03:30:58.757Z,16.72
2022-08-09T03:33:53.461Z,16.74
2022-08-09T03:36:16.605Z,16.76
2022-08-09T03:38:44.947Z,16.75
2022-08-09T03:41:16.624Z,16.70
2022-08-09T03:44:04.019Z,16.69
2022-08-09T03:46:35.071Z,16.67
2022-08-09T03:49:08.686Z,16.69
2022-08-09T03:51:56.249Z,16.67
2022-08-09T03:54:31.320Z,16.63
2022-08-09T03:57:04.071Z,16.61
2022-08-09T03:59:53.458Z,16.58
2022-08-09T04:02:27.839Z,16.60
2022-08-09T04:05:05.660Z,16.59
2022-08-09T04:07:47.029Z,16.57
2022-08-09T04:10:29.180Z,16.58
2022-08-09T04:13:01.378Z,16.49
2022-08-09T04:15:52.446Z,16.43
2022-08-09T04:18:19.384Z,16.46
2022-08-09T04:20:48.143Z,16.42
2022-08-09T04:23:17.107Z,16.43
2022-08-09T04:25:52.184Z,16.48
2022-08-09T04:28:34.145Z,16.50
2022-08-09T04:31:08.043Z,16.47
2022-08-09T04:33:52.429Z,16.37
2022-08-09T04:36:23.447Z,16.29
2022-08-09T04:38:51.168Z,16.25
2022-08-09T04:41:18.887Z,16.20
2022-08-09T04:43:46.497Z,16.17
2022-08-09T04:46:36.564Z,16.14
2022-08-09T04:49:30.259Z,16.10
2022-08-09T04:52:05.915Z,16.07
2022-08-09T04:54:34.435Z,16.06
2022-08-09T04:57:01.144Z,16.07
2022-08-09T04:59:31.518Z,16.05
2022-08-09T05:01:58.582Z,16.04
2022-08-09T05:04:30.865Z,16.04
2022-08-09T05:06:58.484Z,16.11
2022-08-09T05:09:25.262Z,16.09
2022-08-09T05:12:11.057Z,16.04
2022-08-09T05:14:41.158Z,16.01
2022-08-09T05:18:36.555Z,16.04
2022-08-09T05:19:57.065Z,16.10
2022-08-09T05:22:33.477Z,16.10
2022-08-09T05:25:04.697Z,16.08
2022-08-09T05:27:31.531Z,16.09
2022-08-09T05:29:58.998Z,16.11
2022-08-09T05:32:26.426Z,16.17
2022-08-09T05:34:56.887Z,16.18
2022-08-09T05:37:23.916Z,16.21
2022-08-09T05:39:52.450Z,16.26
2022-08-09T05:42:21.586Z,16.29
2022-08-09T05:44:54.065Z,16.27
2022-08-09T05:47:21.663Z,16.28
2022-08-09T05:50:29.863Z,16.32
2022-08-09T05:52:38.802Z,16.35
2022-08-09T05:55:08.719Z,16.33
2022-08-09T05:57:56.145Z,16.34
2022-08-09T06:00:23.868Z,16.33
2022-08-09T06:02:54.652Z,16.35
2022-08-09T06:05:30.980Z,16.35
2022-08-09T06:08:19.618Z,16.35
2022-08-09T06:10:51.502Z,16.38
2022-08-09T06:13:20.327Z,16.48
2022-08-09T06:15:52.275Z,16.53
2022-08-09T06:18:25.361Z,16.59
2022-08-09T06:20:57.787Z,16.65
2022-08-09T06:23:57.553Z,16.67
2022-08-09T06:26:22.458Z,16.74
2022-08-09T06:28:59.356Z,16.81
2022-08-09T06:31:31.016Z,16.80
2022-08-09T06:34:06.636Z,16.86
2022-08-09T06:36:34.115Z,16.90
2022-08-09T06:39:02.665Z,16.97
2022-08-09T06:42:07.687Z,17.02
2022-08-09T06:44:22.882Z,17.05
2022-08-09T06:46:55.236Z,17.07
2022-08-09T06:49:44.697Z,17.13
2022-08-09T06:52:10.159Z,17.19
2022-08-09T06:54:38.800Z,17.24
2022-08-09T06:57:08.241Z,17.29
2022-08-09T07:00:51.496Z,17.34
2022-08-09T07:02:22.067Z,17.39
2022-08-09T07:04:56.256Z,17.42
2022-08-09T07:07:59.101Z,17.48
2022-08-09T07:10:22.606Z,17.51
2022-08-09T07:12:57.073Z,17.57
2022-08-09T07:15:53.920Z,17.66
2022-08-09T07:18:11.555Z,17.67
2022-08-09T07:20:43.675Z,17.68
2022-08-09T07:23:18.324Z,17.78
2022-08-09T07:25:47.651Z,17.86
2022-08-09T07:28:26.341Z,17.96
2022-08-09T07:30:55.161Z,18.08
2022-08-09T07:33:22.029Z,18.16
2022-08-09T07:35:53.833Z,18.23
2022-08-09T07:38:23.481Z,18.30
2022-08-09T07:41:09.910Z,18.41
2022-08-09T07:43:49.627Z,18.51
2022-08-09T07:46:19.343Z,18.63
2022-08-09T07:48:47.051Z,18.72
2022-08-09T07:52:05.648Z,18.82
2022-08-09T07:54:12.802Z,18.95
2022-08-09T07:56:49.811Z,19.04
2022-08-09T07:59:25.708Z,19.17
2022-08-09T08:02:00.967Z,19.37
2022-08-09T08:04:31.533Z,19.55
2022-08-09T08:07:00.218Z,19.63
2022-08-09T08:09:42.955Z,19.80
2022-08-09T08:12:29.222Z,20.08
2022-08-09T08:14:57.565Z,20.41
2022-08-09T08:17:52.080Z,20.70
2022-08-09T08:20:13.666Z,21.04
2022-08-09T08:22:41.084Z,21.47
2022-08-09T08:25:13.511Z,22.09
2022-08-09T08:27:43.019Z,22.73
2022-08-09T08:30:11.846Z,23.42
2022-08-09T08:32:52.754Z,24.17
2022-08-09T08:35:22.538Z,25.09
2022-08-09T08:38:04.848Z,25.79
2022-08-09T08:40:38.534Z,26.34
2022-08-09T08:43:08.733Z,26.90
2022-08-09T08:45:51.713Z,27.50
2022-08-09T08:48:22.944Z,27.93
2022-08-09T08:50:57.443Z,28.44
2022-08-09T08:53:32.121Z,28.88
2022-08-09T08:56:04.702Z,29.35
2022-08-09T08:58:33.233Z,29.32
2022-08-09T09:01:09.200Z,29.39
2022-08-09T09:03:50.527Z,29.73
2022-08-09T09:06:19.097Z,29.98
2022-08-09T09:08:52.354Z,30.08
2022-08-09T09:11:20.613Z,30.36
2022-08-09T09:13:56.851Z,30.53
2022-08-09T09:16:33.621Z,30.49
2022-08-09T09:19:40.841Z,30.49
2022-08-09T09:22:03.672Z,30.61
2022-08-09T09:24:38.208Z,30.71
2022-08-09T09:27:08.540Z,30.89
2022-08-09T09:30:12.068Z,31.06
2022-08-09T09:32:34.533Z,31.31
2022-08-09T09:35:02.316Z,31.41
2022-08-09T09:37:31.760Z,31.58
2022-08-09T09:39:59.973Z,31.51
2022-08-09T09:42:29.809Z,31.44
2022-08-09T09:45:04.175Z,31.48
2022-08-09T09:47:32.531Z,31.67
2022-08-09T09:50:13.768Z,31.78
2022-08-09T09:52:54.386Z,31.84
2022-08-09T09:55:28.675Z,31.93
2022-08-09T09:58:18.826Z,32.11
2022-08-09T10:00:53.828Z,32.26
2022-08-09T10:03:57.713Z,32.14
2022-08-09T10:06:28.495Z,32.15
2022-08-09T10:09:21.465Z,32.29
2022-08-09T10:12:14.714Z,32.12
2022-08-09T10:14:49.366Z,32.22
2022-08-09T10:17:40.537Z,32.27
2022-08-09T10:20:31.844Z,32.30
2022-08-09T10:23:24.939Z,32.35
2022-08-09T10:26:06.836Z,32.48
2022-08-09T10:28:39.165Z,32.55
2022-08-09T10:34:09.204Z,32.17
2022-08-09T10:36:42.976Z,31.88
2022-08-09T10:39:15.712Z,31.78
2022-08-09T10:41:45.017Z,31.38
2022-08-09T10:44:12.781Z,30.95
2022-08-09T10:46:55.782Z,30.82
2022-08-09T10:49:51.626Z,30.85
2022-08-09T10:52:52.098Z,30.77
2022-08-09T10:55:28.737Z,30.60
2022-08-09T10:58:03.492Z,30.31
2022-08-09T11:00:37.077Z,30.04
2022-08-09T11:03:47.088Z,29.44
2022-08-09T11:06:24.155Z,28.86
2022-08-09T11:08:53.950Z,28.58
2022-08-09T11:11:21.938Z,28.31
2022-08-09T11:14:28.021Z,28.10
2022-08-09T11:16:56.148Z,27.84
2022-08-09T11:20:22.285Z,27.34
2022-08-09T11:22:55.456Z,26.85
2022-08-09T11:25:47.805Z,26.57
2022-08-09T11:28:38.781Z,26.43
2022-08-09T11:31:50.147Z,26.25
2022-08-09T11:34:56.772Z,26.06
2022-08-09T11:37:40.519Z,25.97
2022-08-09T11:40:11.296Z,25.90
2022-08-09T11:42:49.204Z,25.75
2022-08-09T11:45:51.967Z,25.69
2022-08-09T11:48:26.154Z,25.69
2022-08-09T11:52:49.293Z,25.78
2022-08-09T11:54:01.494Z,25.77
2022-08-09T11:56:42.673Z,25.75
2022-08-09T11:59:30.516Z,25.65
2022-08-09T12:02:34.389Z,25.61
2022-08-09T12:04:58.076Z,25.59
2022-08-09T12:07:34.442Z,25.44
2022-08-09T12:10:31.995Z,25.18
2022-08-09T12:12:57.624Z,25.05
2022-08-09T12:15:49.760Z,25.03
2022-08-09T12:18:30.145Z,25.10
2022-08-09T12:21:00.714Z,25.13
2022-08-09T12:23:56.473Z,25.20
2022-08-09T12:26:25.758Z,25.21
2022-08-09T12:29:11.817Z,25.38
2022-08-09T12:31:58.875Z,25.53
2022-08-09T12:34:34.005Z,25.54
2022-08-09T12:37:21.584Z,25.48
2022-08-09T12:40:09.809Z,25.48
2022-08-09T12:42:42.573Z,25.60
2022-08-09T12:45:34.408Z,25.72
2022-08-09T12:47:56.846Z,25.79
2022-08-09T12:50:25.156Z,25.80
2022-08-09T12:53:09.481Z,25.73
2022-08-09T12:56:15.560Z,25.75
2022-08-09T12:58:28.194Z,25.79
2022-08-09T13:00:56.117Z,25.83
2022-08-09T13:03:57.401Z,25.90
2022-08-09T13:06:34.725Z,25.92
2022-08-09T13:09:13.865Z,26.06
2022-08-09T13:11:43.335Z,26.18
2022-08-09T13:14:42.139Z,26.13
2022-08-09T13:17:44.104Z,26.21
2022-08-09T13:20:13.293Z,26.20
2022-08-09T13:23:04.710Z,26.29
2022-08-09T13:25:42.438Z,26.31
2022-08-09T13:28:18.779Z,26.36
2022-08-09T13:32:14.219Z,26.37
2022-08-09T13:33:54.153Z,26.40
2022-08-09T13:36:39.815Z,26.43
2022-08-09T13:41:18.989Z,26.52
2022-08-09T13:42:12.716Z,26.64
2022-08-09T13:44:42.057Z,26.69
2022-08-09T13:47:26.559Z,26.73
2022-08-09T13:50:01.321Z,26.76
2022-08-09T13:52:33.337Z,26.78
2022-08-09T13:55:04.381Z,26.85
2022-08-09T13:57:40.246Z,26.89
2022-08-09T14:00:27.322Z,26.96
2022-08-09T14:03:03.510Z,27.13
2022-08-09T14:05:58.604Z,27.27
2022-08-09T14:08:29.994Z,27.42
2022-08-09T14:11:00.156Z,27.57
2022-08-09T14:14:23.422Z,27.59
2022-08-09T14:16:28.770Z,27.55
2022-08-09T14:18:58.133Z,27.52
2022-08-09T14:21:29.654Z,27.62
2022-08-09T14:24:01.334Z,27.64
2022-08-09T14:26:37.726Z,27.78
2022-08-09T14:29:07.738Z,27.72
2022-08-09T14:31:54.579Z,27.82
2022-08-09T14:34:31.473Z,27.95
2022-08-09T14:37:06.519Z,28.09
2022-08-09T14:39:45.394Z,28.27
2022-08-09T14:42:31.618Z,28.46
2022-08-09T14:45:14.913Z,28.41
2022-08-09T14:47:56.968Z,28.39
2022-08-09T14:50:26.300Z,28.47
2022-08-09T14:52:54.708Z,28.49
2022-08-09T14:55:21.550Z,28.55
2022-08-09T14:57:49.270Z,28.59
2022-08-09T15:00:17.037Z,28.56
2022-08-09T15:02:47.278Z,28.67
2022-08-09T15:05:18.641Z,28.68
2022-08-09T15:07:54.756Z,28.61
2022-08-09T15:10:24.951Z,28.55
2022-08-09T15:12:53.365Z,28.58
2022-08-09T15:15:20.417Z,28.63
2022-08-09T15:17:52.946Z,28.63
2022-08-09T15:21:56.827Z,28.63
2022-08-09T15:24:03.138Z,28.52
2022-08-09T15:25:57.468Z,28.56
2022-08-09T15:28:27.493Z,28.61
2022-08-09T15:31:01.910Z,28.67
2022-08-09T15:34:15.544Z,28.55
2022-08-09T15:36:25.489Z,28.62
2022-08-09T15:38:56.485Z,28.42
2022-08-09T15:41:23.398Z,28.31
2022-08-09T15:44:03.568Z,28.45
2022-08-09T15:46:33.767Z,28.48
2022-08-09T15:49:21.251Z,28.57
2022-08-09T15:52:03.840Z,28.43
2022-08-09T15:54:49.053Z,28.38
2022-08-09T15:57:35.887Z,28.58
2022-08-09T16:00:24.622Z,28.84
2022-08-09T16:02:54.645Z,28.73
2022-08-09T16:05:23.773Z,28.67
2022-08-09T16:07:51.153Z,28.64
2022-08-09T16:10:54.912Z,28.59
2022-08-09T16:13:20.724Z,28.59
2022-08-09T16:16:04.392Z,28.54
2022-08-09T16:18:45.196Z,28.68
2022-08-09T16:21:17.558Z,28.75
2022-08-09T16:23:58.671Z,28.81
2022-08-09T16:26:33.814Z,28.94
2022-08-09T16:29:14.481Z,29.00
2022-08-09T16:32:18.419Z,28.97
2022-08-09T16:34:54.520Z,28.93
2022-08-09T16:37:53.420Z,28.98
2022-08-09T16:40:10.211Z,28.90
2022-08-09T16:42:37.407Z,28.88
2022-08-09T16:45:05.887Z,28.81
2022-08-09T16:48:42.504Z,28.76
2022-08-09T16:50:29.072Z,28.76
2022-08-09T16:52:59.993Z,28.82
2022-08-09T16:55:26.690Z,28.92
2022-08-09T16:58:08.718Z,28.94
2022-08-09T17:00:36.775Z,28.89
2022-08-09T17:03:07.146Z,28.81
2022-08-09T17:06:03.508Z,28.70
2022-08-09T17:08:45.797Z,28.54
2022-08-09T17:11:24.379Z,28.35
2022-08-09T17:14:01.869Z,28.33
2022-08-09T17:16:29.062Z,28.34
2022-08-09T17:18:56.010Z,28.18
2022-08-09T17:21:25.194Z,28.06
2022-08-09T17:24:28.149Z,28.15
2022-08-09T17:26:42.490Z,28.27
2022-08-09T17:29:20.232Z,28.18
2022-08-09T17:31:49.161Z,28.11
2022-08-09T17:34:59.771Z,28.00
2022-08-09T17:37:03.841Z,27.92
2022-08-09T17:39:53.221Z,27.77
2022-08-09T17:42:40.941Z,27.71
2022-08-09T17:45:06.300Z,27.50
2022-08-09T17:47:49.419Z,27.31
2022-08-09T17:50:36.453Z,27.14
2022-08-09T17:53:19.785Z,27.03
2022-08-09T17:55:54.198Z,26.81
2022-08-09T17:58:24.268Z,26.73
2022-08-09T18:00:58.468Z,26.80
2022-08-09T18:03:28.663Z,26.91
2022-08-09T18:05:57.190Z,26.97
2022-08-09T18:08:27.691Z,26.98
2022-08-09T18:11:01.022Z,26.90
2022-08-09T18:13:43.253Z,26.75
2022-08-09T18:16:30.280Z,26.61
2022-08-09T18:19:03.531Z,26.38
2022-08-09T18:21:40.812Z,26.22
2022-08-09T18:24:14.197Z,26.07
2022-08-09T18:26:45.984Z,25.92
2022-08-09T18:30:37.643Z,25.63
2022-08-09T18:32:00.897Z,25.53
2022-08-09T18:34:31.652Z,25.37
2022-08-09T18:36:58.753Z,25.16
2022-08-09T18:39:32.134Z,24.96
2022-08-09T18:42:01.811Z,24.77
2022-08-09T18:44:28.540Z,24.56
2022-08-09T18:47:07.426Z,24.37
2022-08-09T18:49:41.502Z,24.24
2022-08-09T18:52:13.761Z,24.14
2022-08-09T18:54:52.845Z,24.03
2022-08-09T18:57:23.194Z,23.94
2022-08-09T18:59:57.399Z,23.88
2022-08-09T19:02:30.447Z,23.80
2022-08-09T19:05:03.918Z,23.74
2022-08-09T19:07:43.226Z,23.69
2022-08-09T19:10:27.056Z,23.51
2022-08-09T19:12:59.110Z,23.44
2022-08-09T19:15:43.453Z,23.38
2022-08-09T19:18:17.283Z,23.32
2022-08-09T19:21:01.196Z,23.28
2022-08-09T19:24:32.713Z,23.18
2022-08-09T19:26:16.206Z,23.09
2022-08-09T19:28:42.870Z,23.08
2022-08-09T19:31:16.632Z,22.97
2022-08-09T19:33:43.672Z,22.95
2022-08-09T19:36:11.849Z,22.96
2022-08-09T19:38:40.348Z,22.91
2022-08-09T19:41:07.044Z,22.78
2022-08-09T19:44:00.771Z,22.74
2022-08-09T19:46:34.013Z,22.66
2022-08-09T19:50:09.775Z,22.57
2022-08-09T19:51:57.013Z,22.45
2022-08-09T19:54:27.811Z,22.36
2022-08-09T19:56:58.688Z,22.36
2022-08-09T19:59:59.638Z,22.37
2022-08-09T20:04:08.197Z,22.36
2022-08-09T20:05:11.737Z,22.26
2022-08-09T20:07:58.554Z,22.17
2022-08-09T20:10:34.804Z,22.10
2022-08-09T20:13:06.570Z,22.02
2022-08-09T20:16:37.975Z,21.98
2022-08-09T20:18:27.879Z,21.96
2022-08-09T20:20:55.628Z,21.83
2022-08-09T20:23:23.769Z,21.79
2022-08-09T20:25:52.933Z,21.75
2022-08-09T20:28:34.474Z,21.76
2022-08-09T20:31:11.433Z,21.71
2022-08-09T20:33:44.266Z,21.66
2022-08-09T20:36:12.405Z,21.62
2022-08-09T20:41:32.150Z,21.52
2022-08-09T20:44:03.602Z,21.50
2022-08-09T20:46:41.757Z,21.45
2022-08-09T20:49:11.188Z,21.44
2022-08-09T20:51:41.500Z,21.36
2022-08-09T20:54:12.678Z,21.34
2022-08-09T20:56:46.653Z,21.29
2022-08-09T20:59:17.127Z,21.30
2022-08-09T21:01:50.037Z,21.29
2022-08-09T21:05:51.341Z,21.24
2022-08-09T21:07:11.854Z,21.17
2022-08-09T21:09:56.967Z,21.15
2022-08-09T21:12:32.215Z,21.13
2022-08-09T21:15:01.533Z,21.09
2022-08-09T21:18:11.712Z,21.04
2022-08-09T21:20:22.857Z,21.00
2022-08-09T21:22:54.089Z,20.91
2022-08-09T21:25:43.966Z,20.92
2022-08-09T21:28:33.334Z,20.81
2022-08-09T21:31:13.499Z,20.77
2022-08-09T21:33:51.754Z,20.77
2022-08-09T21:36:25.736Z,20.69
2022-08-09T21:38:56.713Z,20.65
2022-08-09T21:42:00.154Z,20.58
2022-08-09T21:44:10.532Z,20.51
2022-08-09T21:46:37.222Z,20.50
2022-08-09T21:49:04.049Z,20.49
2022-08-09T21:51:36.484Z,20.41
2022-08-09T21:54:10.647Z,20.32
2022-08-09T21:56:44.721Z,20.27
2022-08-09T21:59:25.495Z,20.22
2022-08-09T22:02:00.476Z,20.21
2022-08-09T22:04:55.111Z,20.21
2022-08-09T22:07:23.455Z,20.21
2022-08-09T22:10:06.580Z,20.15
2022-08-09T22:12:34.344Z,20.09
2022-08-09T22:15:01.278Z,20.07
2022-08-09T22:17:28.175Z,20.08
2022-08-09T22:20:00.848Z,20.04
2022-08-09T22:22:31.221Z,19.99
2022-08-09T22:26:08.246Z,19.93
2022-08-09T22:27:47.920Z,19.87
2022-08-09T22:30:15.907Z,19.83
2022-08-09T22:32:53.301Z,19.76
2022-08-09T22:36:01.989Z,19.74
2022-08-09T22:38:07.987Z,19.68
2022-08-09T22:40:35.700Z,19.63
2022-08-09T22:43:08.711Z,19.58
2022-08-09T22:48:10.396Z,19.52
2022-08-09T22:48:35.578Z,19.47
2022-08-09T22:51:10.620Z,19.41
2022-08-09T22:54:02.259Z,19.39
2022-08-09T22:56:33.502Z,19.35
2022-08-09T22:59:56.835Z,19.31
2022-08-09T23:01:52.814Z,19.26
2022-08-09T23:04:20.343Z,19.24
2022-08-09T23:07:11.281Z,19.23
2022-08-09T23:09:39.123Z,19.17
2022-08-09T23:12:06.517Z,19.14
2022-08-09T23:14:41.264Z,19.10
2022-08-09T23:17:10.731Z,19.03
2022-08-09T23:20:00.809Z,19.02
2022-08-09T23:22:24.691Z,18.98
2022-08-09T23:24:51.346Z,18.99
2022-08-09T23:27:18.228Z,18.91
2022-08-09T23:29:44.919Z,18.85
2022-08-09T23:32:11.805Z,18.85
2022-08-09T23:34:38.559Z,18.82
2022-08-09T23:37:05.592Z,18.81
2022-08-09T23:39:32.805Z,18.79
2022-08-09T23:41:59.845Z,18.75
2022-08-09T23:44:26.632Z,18.75
2022-08-09T23:46:57.748Z,18.72
2022-08-09T23:49:26.099Z,18.67
2022-08-09T23:51:54.209Z,18.66
2022-08-09T23:54:23.070Z,18.63
2022-08-09T23:56:56.268Z,18.58
2022-08-09T23:59:25.449Z,18.52
